sensor_id;sensor_type;location;lat;lon;timestamp;temperature;humidity
11991;DHT22;6055;52.522;13.446;2022-11-11T00:00:29;10.60;99.90
11991;DHT22;6055;52.522;13.446;2022-11-11T00:02:55;10.60;99.90
11991;DHT22;6055;52.522;13.446;2022-11-11T00:05:21;10.60;99.90
11991;DHT22;6055;52.522;13.446;2022-11-11T00:07:47;10.50;99.90
11991;DHT22;6055;52.522;13.446;2022-11-11T00:10:13;10.50;99.90
11991;DHT22;6055;52.522;13.446;2022-11-11T00:12:38;10.50;99.90
11991;DHT22;6055;52.522;13.446;2022-11-11T00:15:05;10.40;99.90
11991;DHT22;6055;52.522;13.446;2022-11-11T00:17:31;10.40;99.90
11991;DHT22;6055;52.522;13.446;2022-11-11T00:20:16;10.40;99.90
11991;DHT22;6055;52.522;13.446;2022-11-11T00:23:00;10.40;99.90
11991;DHT22;6055;52.522;13.446;2022-11-11T00:25:44;10.40;99.90
11991;DHT22;6055;52.522;13.446;2022-11-11T00:28:10;10.30;99.90
11991;DHT22;6055;52.522;13.446;2022-11-11T00:30:35;10.30;99.90
11991;DHT22;6055;52.522;13.446;2022-11-11T00:33:01;10.30;99.90
11991;DHT22;6055;52.522;13.446;2022-11-11T00:35:26;10.40;99.90
11991;DHT22;6055;52.522;13.446;2022-11-11T00:38:13;10.40;99.90
11991;DHT22;6055;52.522;13.446;2022-11-11T00:40:58;10.30;99.90
11991;DHT22;6055;52.522;13.446;2022-11-11T00:43:23;10.30;99.90
11991;DHT22;6055;52.522;13.446;2022-11-11T00:45:49;10.30;99.90
11991;DHT22;6055;52.522;13.446;2022-11-11T00:48:14;10.30;99.90
11991;DHT22;6055;52.522;13.446;2022-11-11T00:50:59;10.20;99.90
11991;DHT22;6055;52.522;13.446;2022-11-11T00:53:27;10.20;99.90
11991;DHT22;6055;52.522;13.446;2022-11-11T00:55:54;10.10;99.90
11991;DHT22;6055;52.522;13.446;2022-11-11T00:58:20;10.10;99.90
11991;DHT22;6055;52.522;13.446;2022-11-11T01:00:47;10.10;99.90
11991;DHT22;6055;52.522;13.446;2022-11-11T01:03:14;10.10;99.90
11991;DHT22;6055;52.522;13.446;2022-11-11T01:05:40;10.10;99.90
11991;DHT22;6055;52.522;13.446;2022-11-11T01:08:06;10.10;99.90
11991;DHT22;6055;52.522;13.446;2022-11-11T01:10:31;10.10;99.90
11991;DHT22;6055;52.522;13.446;2022-11-11T01:15:42;10.10;99.90
11991;DHT22;6055;52.522;13.446;2022-11-11T01:18:09;10.10;99.90
11991;DHT22;6055;52.522;13.446;2022-11-11T01:20:37;10.10;99.90
11991;DHT22;6055;52.522;13.446;2022-11-11T01:23:10;10.10;99.90
11991;DHT22;6055;52.522;13.446;2022-11-11T01:25:37;10.00;99.90
11991;DHT22;6055;52.522;13.446;2022-11-11T01:28:03;10.00;99.90
11991;DHT22;6055;52.522;13.446;2022-11-11T01:30:31;10.00;99.90
11991;DHT22;6055;52.522;13.446;2022-11-11T01:32:57;10.00;99.90
11991;DHT22;6055;52.522;13.446;2022-11-11T01:35:23;10.00;99.90
11991;DHT22;6055;52.522;13.446;2022-11-11T01:37:48;10.00;99.90
11991;DHT22;6055;52.522;13.446;2022-11-11T01:40:14;10.00;99.90
11991;DHT22;6055;52.522;13.446;2022-11-11T01:43:14;10.10;99.90
11991;DHT22;6055;52.522;13.446;2022-11-11T01:48:13;10.10;99.90
11991;DHT22;6055;52.522;13.446;2022-11-11T01:51:02;10.10;99.90
11991;DHT22;6055;52.522;13.446;2022-11-11T01:53:29;10.00;99.90
11991;DHT22;6055;52.522;13.446;2022-11-11T01:55:55;10.00;99.90
11991;DHT22;6055;52.522;13.446;2022-11-11T01:58:21;10.10;99.90
11991;DHT22;6055;52.522;13.446;2022-11-11T02:00:46;10.10;99.90
11991;DHT22;6055;52.522;13.446;2022-11-11T02:03:13;10.00;99.90
11991;DHT22;6055;52.522;13.446;2022-11-11T02:05:39;10.00;99.90
11991;DHT22;6055;52.522;13.446;2022-11-11T02:08:13;10.00;99.90
11991;DHT22;6055;52.522;13.446;2022-11-11T02:10:43;10.00;99.90
11991;DHT22;6055;52.522;13.446;2022-11-11T02:13:14;10.00;99.90
11991;DHT22;6055;52.522;13.446;2022-11-11T02:15:59;10.00;99.90
11991;DHT22;6055;52.522;13.446;2022-11-11T02:18:25;10.00;99.90
11991;DHT22;6055;52.522;13.446;2022-11-11T02:20:51;10.00;99.90
11991;DHT22;6055;52.522;13.446;2022-11-11T02:23:40;10.00;99.90
11991;DHT22;6055;52.522;13.446;2022-11-11T02:26:08;9.90;99.90
11991;DHT22;6055;52.522;13.446;2022-11-11T02:28:35;10.00;99.90
11991;DHT22;6055;52.522;13.446;2022-11-11T02:31:02;9.90;99.90
11991;DHT22;6055;52.522;13.446;2022-11-11T02:33:27;9.90;99.90
11991;DHT22;6055;52.522;13.446;2022-11-11T02:35:55;9.90;99.90
11991;DHT22;6055;52.522;13.446;2022-11-11T02:38:23;9.90;99.90
11991;DHT22;6055;52.522;13.446;2022-11-11T02:40:49;9.90;99.90
11991;DHT22;6055;52.522;13.446;2022-11-11T02:43:33;9.90;99.90
11991;DHT22;6055;52.522;13.446;2022-11-11T02:46:00;9.90;99.90
11991;DHT22;6055;52.522;13.446;2022-11-11T02:48:27;9.90;99.90
11991;DHT22;6055;52.522;13.446;2022-11-11T02:50:52;9.90;99.90
11991;DHT22;6055;52.522;13.446;2022-11-11T02:53:18;9.90;99.90
11991;DHT22;6055;52.522;13.446;2022-11-11T02:55:44;9.90;99.90
11991;DHT22;6055;52.522;13.446;2022-11-11T02:58:10;9.90;99.90
11991;DHT22;6055;52.522;13.446;2022-11-11T03:00:36;9.90;99.90
11991;DHT22;6055;52.522;13.446;2022-11-11T03:03:01;9.80;99.90
11991;DHT22;6055;52.522;13.446;2022-11-11T03:05:27;9.80;99.90
11991;DHT22;6055;52.522;13.446;2022-11-11T03:07:52;9.80;99.90
11991;DHT22;6055;52.522;13.446;2022-11-11T03:10:18;9.80;99.90
11991;DHT22;6055;52.522;13.446;2022-11-11T03:12:43;9.80;99.90
11991;DHT22;6055;52.522;13.446;2022-11-11T03:15:09;9.80;99.90
11991;DHT22;6055;52.522;13.446;2022-11-11T03:17:35;9.80;99.90
11991;DHT22;6055;52.522;13.446;2022-11-11T03:20:08;9.80;99.90
11991;DHT22;6055;52.522;13.446;2022-11-11T03:25:28;9.80;99.90
11991;DHT22;6055;52.522;13.446;2022-11-11T03:28:08;9.80;99.90
11991;DHT22;6055;52.522;13.446;2022-11-11T03:30:34;9.70;99.90
11991;DHT22;6055;52.522;13.446;2022-11-11T03:33:00;9.80;99.90
11991;DHT22;6055;52.522;13.446;2022-11-11T03:35:26;9.80;99.90
11991;DHT22;6055;52.522;13.446;2022-11-11T03:37:51;9.80;99.90
11991;DHT22;6055;52.522;13.446;2022-11-11T03:40:35;9.70;99.90
11991;DHT22;6055;52.522;13.446;2022-11-11T03:43:01;9.70;99.90
11991;DHT22;6055;52.522;13.446;2022-11-11T03:45:27;9.70;99.90
11991;DHT22;6055;52.522;13.446;2022-11-11T03:47:52;9.80;99.90
11991;DHT22;6055;52.522;13.446;2022-11-11T03:50:19;9.70;99.90
11991;DHT22;6055;52.522;13.446;2022-11-11T03:52:45;9.80;99.90
11991;DHT22;6055;52.522;13.446;2022-11-11T03:55:10;9.80;99.90
11991;DHT22;6055;52.522;13.446;2022-11-11T03:57:40;9.80;99.90
11991;DHT22;6055;52.522;13.446;2022-11-11T04:00:07;9.80;99.90
11991;DHT22;6055;52.522;13.446;2022-11-11T04:02:33;9.80;99.90
11991;DHT22;6055;52.522;13.446;2022-11-11T04:05:17;9.80;99.90
11991;DHT22;6055;52.522;13.446;2022-11-11T04:08:02;9.80;99.90
11991;DHT22;6055;52.522;13.446;2022-11-11T04:10:46;9.80;99.90
11991;DHT22;6055;52.522;13.446;2022-11-11T04:13:12;9.80;99.90
11991;DHT22;6055;52.522;13.446;2022-11-11T04:15:56;9.80;99.90
11991;DHT22;6055;52.522;13.446;2022-11-11T04:18:31;9.80;99.90
11991;DHT22;6055;52.522;13.446;2022-11-11T04:21:16;9.80;99.90
11991;DHT22;6055;52.522;13.446;2022-11-11T04:24:00;9.80;99.90
11991;DHT22;6055;52.522;13.446;2022-11-11T04:26:26;9.80;99.90
11991;DHT22;6055;52.522;13.446;2022-11-11T04:28:51;9.80;99.90
11991;DHT22;6055;52.522;13.446;2022-11-11T04:31:35;9.80;99.90
11991;DHT22;6055;52.522;13.446;2022-11-11T04:34:01;9.80;99.90
11991;DHT22;6055;52.522;13.446;2022-11-11T04:36:29;9.80;99.90
11991;DHT22;6055;52.522;13.446;2022-11-11T04:38:55;9.80;99.90
11991;DHT22;6055;52.522;13.446;2022-11-11T04:41:39;9.70;99.90
11991;DHT22;6055;52.522;13.446;2022-11-11T04:44:05;9.70;99.90
11991;DHT22;6055;52.522;13.446;2022-11-11T04:46:49;9.70;99.90
11991;DHT22;6055;52.522;13.446;2022-11-11T04:49:15;9.70;99.90
11991;DHT22;6055;52.522;13.446;2022-11-11T04:51:40;9.70;99.90
11991;DHT22;6055;52.522;13.446;2022-11-11T04:54:24;9.60;99.90
11991;DHT22;6055;52.522;13.446;2022-11-11T04:56:50;9.70;99.90
11991;DHT22;6055;52.522;13.446;2022-11-11T04:59:15;9.70;99.90
11991;DHT22;6055;52.522;13.446;2022-11-11T05:01:41;9.60;99.90
11991;DHT22;6055;52.522;13.446;2022-11-11T05:04:26;9.60;99.90
11991;DHT22;6055;52.522;13.446;2022-11-11T05:06:52;9.60;99.90
11991;DHT22;6055;52.522;13.446;2022-11-11T05:09:36;9.60;99.90
11991;DHT22;6055;52.522;13.446;2022-11-11T05:12:02;9.60;99.90
11991;DHT22;6055;52.522;13.446;2022-11-11T05:14:27;9.60;99.90
11991;DHT22;6055;52.522;13.446;2022-11-11T05:17:12;9.60;99.90
11991;DHT22;6055;52.522;13.446;2022-11-11T05:19:56;9.60;99.90
11991;DHT22;6055;52.522;13.446;2022-11-11T05:22:43;9.50;99.90
11991;DHT22;6055;52.522;13.446;2022-11-11T05:25:11;9.60;99.90
11991;DHT22;6055;52.522;13.446;2022-11-11T05:27:57;9.60;99.90
11991;DHT22;6055;52.522;13.446;2022-11-11T05:30:23;9.60;99.90
11991;DHT22;6055;52.522;13.446;2022-11-11T05:32:49;9.50;99.90
11991;DHT22;6055;52.522;13.446;2022-11-11T05:35:16;9.60;99.90
11991;DHT22;6055;52.522;13.446;2022-11-11T05:37:42;9.50;99.90
11991;DHT22;6055;52.522;13.446;2022-11-11T05:40:09;9.50;99.90
11991;DHT22;6055;52.522;13.446;2022-11-11T05:42:35;9.50;99.90
11991;DHT22;6055;52.522;13.446;2022-11-11T05:45:00;9.50;99.90
11991;DHT22;6055;52.522;13.446;2022-11-11T05:47:26;9.50;99.90
11991;DHT22;6055;52.522;13.446;2022-11-11T05:49:51;9.50;99.90
11991;DHT22;6055;52.522;13.446;2022-11-11T05:52:17;9.50;99.90
11991;DHT22;6055;52.522;13.446;2022-11-11T05:54:44;9.50;99.90
11991;DHT22;6055;52.522;13.446;2022-11-11T05:57:10;9.40;99.90
11991;DHT22;6055;52.522;13.446;2022-11-11T05:59:35;9.40;99.90
11991;DHT22;6055;52.522;13.446;2022-11-11T06:02:01;9.40;99.90
11991;DHT22;6055;52.522;13.446;2022-11-11T06:04:26;9.40;99.90
11991;DHT22;6055;52.522;13.446;2022-11-11T06:06:53;9.40;99.90
11991;DHT22;6055;52.522;13.446;2022-11-11T06:09:19;9.50;99.90
11991;DHT22;6055;52.522;13.446;2022-11-11T06:11:44;9.50;99.90
11991;DHT22;6055;52.522;13.446;2022-11-11T06:14:09;9.50;99.90
11991;DHT22;6055;52.522;13.446;2022-11-11T06:16:35;9.50;99.90
11991;DHT22;6055;52.522;13.446;2022-11-11T06:19:01;9.50;99.90
11991;DHT22;6055;52.522;13.446;2022-11-11T06:21:31;9.50;99.90
11991;DHT22;6055;52.522;13.446;2022-11-11T06:24:17;9.50;99.90
11991;DHT22;6055;52.522;13.446;2022-11-11T06:26:42;9.50;99.90
11991;DHT22;6055;52.522;13.446;2022-11-11T06:29:07;9.50;99.90
11991;DHT22;6055;52.522;13.446;2022-11-11T06:31:33;9.50;99.90
11991;DHT22;6055;52.522;13.446;2022-11-11T06:33:59;9.50;99.90
11991;DHT22;6055;52.522;13.446;2022-11-11T06:36:24;9.50;99.90
11991;DHT22;6055;52.522;13.446;2022-11-11T06:38:50;9.50;99.90
11991;DHT22;6055;52.522;13.446;2022-11-11T06:41:15;9.40;99.90
11991;DHT22;6055;52.522;13.446;2022-11-11T06:43:42;9.50;99.90
11991;DHT22;6055;52.522;13.446;2022-11-11T06:46:22;9.50;99.90
11991;DHT22;6055;52.522;13.446;2022-11-11T06:48:47;9.50;99.90
11991;DHT22;6055;52.522;13.446;2022-11-11T06:51:13;9.50;99.90
11991;DHT22;6055;52.522;13.446;2022-11-11T06:53:39;9.50;99.90
11991;DHT22;6055;52.522;13.446;2022-11-11T06:56:05;9.50;99.90
11991;DHT22;6055;52.522;13.446;2022-11-11T06:58:32;9.50;99.90
11991;DHT22;6055;52.522;13.446;2022-11-11T07:00:57;9.50;99.90
11991;DHT22;6055;52.522;13.446;2022-11-11T07:03:23;9.50;99.90
11991;DHT22;6055;52.522;13.446;2022-11-11T07:05:48;9.60;99.90
11991;DHT22;6055;52.522;13.446;2022-11-11T07:08:16;9.60;99.90
11991;DHT22;6055;52.522;13.446;2022-11-11T07:10:47;9.60;99.90
11991;DHT22;6055;52.522;13.446;2022-11-11T07:13:14;9.60;99.90
11991;DHT22;6055;52.522;13.446;2022-11-11T07:15:41;9.70;99.90
11991;DHT22;6055;52.522;13.446;2022-11-11T07:18:07;9.70;99.90
11991;DHT22;6055;52.522;13.446;2022-11-11T07:20:33;9.70;99.90
11991;DHT22;6055;52.522;13.446;2022-11-11T07:22:58;9.80;99.90
11991;DHT22;6055;52.522;13.446;2022-11-11T07:25:24;9.80;99.90
11991;DHT22;6055;52.522;13.446;2022-11-11T07:27:50;9.90;99.90
11991;DHT22;6055;52.522;13.446;2022-11-11T07:30:15;9.80;99.90
11991;DHT22;6055;52.522;13.446;2022-11-11T07:32:48;9.90;99.90
11991;DHT22;6055;52.522;13.446;2022-11-11T07:35:15;9.90;99.90
11991;DHT22;6055;52.522;13.446;2022-11-11T07:37:41;9.90;99.90
11991;DHT22;6055;52.522;13.446;2022-11-11T07:40:08;9.90;99.90
11991;DHT22;6055;52.522;13.446;2022-11-11T07:42:38;9.90;99.90
11991;DHT22;6055;52.522;13.446;2022-11-11T07:45:04;10.00;99.90
11991;DHT22;6055;52.522;13.446;2022-11-11T07:47:30;10.10;99.90
11991;DHT22;6055;52.522;13.446;2022-11-11T07:49:55;10.00;99.90
11991;DHT22;6055;52.522;13.446;2022-11-11T07:52:21;10.10;99.90
11991;DHT22;6055;52.522;13.446;2022-11-11T07:54:48;10.10;99.90
11991;DHT22;6055;52.522;13.446;2022-11-11T07:57:14;10.10;99.90
11991;DHT22;6055;52.522;13.446;2022-11-11T07:59:39;10.10;99.90
11991;DHT22;6055;52.522;13.446;2022-11-11T08:02:10;10.20;99.90
11991;DHT22;6055;52.522;13.446;2022-11-11T08:04:36;10.20;99.90
11991;DHT22;6055;52.522;13.446;2022-11-11T08:07:02;10.20;99.90
11991;DHT22;6055;52.522;13.446;2022-11-11T08:09:27;10.20;99.90
11991;DHT22;6055;52.522;13.446;2022-11-11T08:11:53;10.20;99.90
11991;DHT22;6055;52.522;13.446;2022-11-11T08:14:37;10.30;99.90
11991;DHT22;6055;52.522;13.446;2022-11-11T08:17:02;10.30;99.90
11991;DHT22;6055;52.522;13.446;2022-11-11T08:19:28;10.30;99.90
11991;DHT22;6055;52.522;13.446;2022-11-11T08:21:53;10.30;99.90
11991;DHT22;6055;52.522;13.446;2022-11-11T08:24:18;10.30;99.90
11991;DHT22;6055;52.522;13.446;2022-11-11T08:26:44;10.30;99.90
11991;DHT22;6055;52.522;13.446;2022-11-11T08:29:09;10.40;99.90
11991;DHT22;6055;52.522;13.446;2022-11-11T08:31:35;10.40;99.90
11991;DHT22;6055;52.522;13.446;2022-11-11T08:34:00;10.50;99.90
11991;DHT22;6055;52.522;13.446;2022-11-11T08:36:26;10.60;99.90
11991;DHT22;6055;52.522;13.446;2022-11-11T08:38:51;10.70;99.90
11991;DHT22;6055;52.522;13.446;2022-11-11T08:41:17;10.70;99.90
11991;DHT22;6055;52.522;13.446;2022-11-11T08:43:43;10.70;99.90
11991;DHT22;6055;52.522;13.446;2022-11-11T08:46:08;10.80;99.90
11991;DHT22;6055;52.522;13.446;2022-11-11T08:48:35;10.90;99.90
11991;DHT22;6055;52.522;13.446;2022-11-11T08:51:01;10.90;99.90
11991;DHT22;6055;52.522;13.446;2022-11-11T08:53:26;11.00;99.90
11991;DHT22;6055;52.522;13.446;2022-11-11T08:55:52;11.00;99.90
11991;DHT22;6055;52.522;13.446;2022-11-11T08:58:18;11.10;99.90
11991;DHT22;6055;52.522;13.446;2022-11-11T09:00:43;11.20;99.90
11991;DHT22;6055;52.522;13.446;2022-11-11T09:03:10;11.20;99.90
11991;DHT22;6055;52.522;13.446;2022-11-11T09:05:39;11.30;99.90
11991;DHT22;6055;52.522;13.446;2022-11-11T09:08:06;11.30;99.90
11991;DHT22;6055;52.522;13.446;2022-11-11T09:10:33;11.30;99.90
11991;DHT22;6055;52.522;13.446;2022-11-11T09:12:59;11.40;99.90
11991;DHT22;6055;52.522;13.446;2022-11-11T09:15:25;11.50;99.90
11991;DHT22;6055;52.522;13.446;2022-11-11T09:17:51;11.50;99.90
11991;DHT22;6055;52.522;13.446;2022-11-11T09:20:17;11.60;99.90
11991;DHT22;6055;52.522;13.446;2022-11-11T09:22:44;11.60;99.90
11991;DHT22;6055;52.522;13.446;2022-11-11T09:25:10;11.60;99.90
11991;DHT22;6055;52.522;13.446;2022-11-11T09:27:35;11.70;99.90
11991;DHT22;6055;52.522;13.446;2022-11-11T09:30:01;11.70;99.90
11991;DHT22;6055;52.522;13.446;2022-11-11T09:32:27;11.70;99.90
11991;DHT22;6055;52.522;13.446;2022-11-11T09:34:52;11.70;99.90
11991;DHT22;6055;52.522;13.446;2022-11-11T09:37:19;11.90;99.90
11991;DHT22;6055;52.522;13.446;2022-11-11T09:39:45;11.90;99.90
11991;DHT22;6055;52.522;13.446;2022-11-11T09:42:36;11.90;99.90
11991;DHT22;6055;52.522;13.446;2022-11-11T09:50:03;12.00;99.90
11991;DHT22;6055;52.522;13.446;2022-11-11T09:52:35;11.90;99.90
11991;DHT22;6055;52.522;13.446;2022-11-11T09:55:39;11.90;99.90
11991;DHT22;6055;52.522;13.446;2022-11-11T09:58:13;11.90;99.90
11991;DHT22;6055;52.522;13.446;2022-11-11T10:00:42;12.00;99.90
11991;DHT22;6055;52.522;13.446;2022-11-11T10:08:17;12.10;99.90
11991;DHT22;6055;52.522;13.446;2022-11-11T10:10:50;12.20;99.90
11991;DHT22;6055;52.522;13.446;2022-11-11T10:13:20;12.30;99.90
11991;DHT22;6055;52.522;13.446;2022-11-11T10:16:13;12.30;99.90
11991;DHT22;6055;52.522;13.446;2022-11-11T10:18:53;12.40;99.90
11991;DHT22;6055;52.522;13.446;2022-11-11T10:24:36;12.30;99.90
11991;DHT22;6055;52.522;13.446;2022-11-11T10:27:03;12.30;99.90
11991;DHT22;6055;52.522;13.446;2022-11-11T10:29:39;12.30;99.90
11991;DHT22;6055;52.522;13.446;2022-11-11T10:32:15;12.40;99.90
11991;DHT22;6055;52.522;13.446;2022-11-11T10:34:41;12.50;99.90
11991;DHT22;6055;52.522;13.446;2022-11-11T10:37:26;12.50;99.90
11991;DHT22;6055;52.522;13.446;2022-11-11T10:40:22;12.60;99.90
11991;DHT22;6055;52.522;13.446;2022-11-11T10:42:49;12.60;99.90
11991;DHT22;6055;52.522;13.446;2022-11-11T10:48:20;12.60;99.90
11991;DHT22;6055;52.522;13.446;2022-11-11T10:50:50;12.60;99.90
11991;DHT22;6055;52.522;13.446;2022-11-11T10:53:28;12.70;99.90
11991;DHT22;6055;52.522;13.446;2022-11-11T10:58:50;12.80;99.90
11991;DHT22;6055;52.522;13.446;2022-11-11T11:01:24;12.80;99.90
11991;DHT22;6055;52.522;13.446;2022-11-11T11:03:58;12.90;99.90
11991;DHT22;6055;52.522;13.446;2022-11-11T11:06:30;13.00;99.90
11991;DHT22;6055;52.522;13.446;2022-11-11T11:12:14;13.00;99.90
11991;DHT22;6055;52.522;13.446;2022-11-11T11:14:43;13.00;99.90
11991;DHT22;6055;52.522;13.446;2022-11-11T11:17:22;13.00;99.90
11991;DHT22;6055;52.522;13.446;2022-11-11T11:20:09;13.00;99.90
11991;DHT22;6055;52.522;13.446;2022-11-11T11:22:46;13.00;99.90
11991;DHT22;6055;52.522;13.446;2022-11-11T11:25:13;13.00;99.90
11991;DHT22;6055;52.522;13.446;2022-11-11T11:27:38;13.00;99.90
11991;DHT22;6055;52.522;13.446;2022-11-11T11:30:23;13.00;99.90
11991;DHT22;6055;52.522;13.446;2022-11-11T11:33:03;13.10;99.90
11991;DHT22;6055;52.522;13.446;2022-11-11T11:35:42;13.10;99.90
11991;DHT22;6055;52.522;13.446;2022-11-11T11:38:11;13.20;99.90
11991;DHT22;6055;52.522;13.446;2022-11-11T11:40:51;13.20;99.90
11991;DHT22;6055;52.522;13.446;2022-11-11T11:43:37;13.20;99.90
11991;DHT22;6055;52.522;13.446;2022-11-11T11:46:13;13.20;99.90
11991;DHT22;6055;52.522;13.446;2022-11-11T11:51:32;13.30;99.90
11991;DHT22;6055;52.522;13.446;2022-11-11T11:54:10;13.30;99.90
11991;DHT22;6055;52.522;13.446;2022-11-11T11:56:40;13.30;99.90
11991;DHT22;6055;52.522;13.446;2022-11-11T11:59:16;13.20;99.90
11991;DHT22;6055;52.522;13.446;2022-11-11T12:01:59;13.30;99.90
11991;DHT22;6055;52.522;13.446;2022-11-11T12:04:33;13.30;99.90
11991;DHT22;6055;52.522;13.446;2022-11-11T12:07:19;13.30;99.90
11991;DHT22;6055;52.522;13.446;2022-11-11T12:10:24;13.30;99.90
11991;DHT22;6055;52.522;13.446;2022-11-11T12:15:39;13.30;99.90
11991;DHT22;6055;52.522;13.446;2022-11-11T12:21:14;13.40;99.90
11991;DHT22;6055;52.522;13.446;2022-11-11T12:24:07;13.40;99.90
11991;DHT22;6055;52.522;13.446;2022-11-11T12:27:00;13.40;99.90
11991;DHT22;6055;52.522;13.446;2022-11-11T12:35:26;13.70;99.90
11991;DHT22;6055;52.522;13.446;2022-11-11T12:40:51;13.90;99.90
11991;DHT22;6055;52.522;13.446;2022-11-11T12:49:17;14.20;99.90
11991;DHT22;6055;52.522;13.446;2022-11-11T12:57:35;14.30;99.90
11991;DHT22;6055;52.522;13.446;2022-11-11T13:00:35;14.40;99.90
11991;DHT22;6055;52.522;13.446;2022-11-11T13:03:31;14.40;99.90
11991;DHT22;6055;52.522;13.446;2022-11-11T13:06:16;14.40;99.90
11991;DHT22;6055;52.522;13.446;2022-11-11T13:09:01;14.30;99.90
11991;DHT22;6055;52.522;13.446;2022-11-11T13:17:21;14.10;99.90
11991;DHT22;6055;52.522;13.446;2022-11-11T13:19:59;14.00;99.90
11991;DHT22;6055;52.522;13.446;2022-11-11T13:22:31;13.90;99.90
11991;DHT22;6055;52.522;13.446;2022-11-11T13:24:57;13.80;99.90
11991;DHT22;6055;52.522;13.446;2022-11-11T13:27:47;13.70;99.90
11991;DHT22;6055;52.522;13.446;2022-11-11T13:30:33;13.70;99.90
11991;DHT22;6055;52.522;13.446;2022-11-11T13:33:10;13.70;99.90
11991;DHT22;6055;52.522;13.446;2022-11-11T13:36:06;13.60;99.90
11991;DHT22;6055;52.522;13.446;2022-11-11T13:38:45;13.60;99.90
11991;DHT22;6055;52.522;13.446;2022-11-11T13:41:12;13.60;99.90
11991;DHT22;6055;52.522;13.446;2022-11-11T13:43:46;13.50;99.90
11991;DHT22;6055;52.522;13.446;2022-11-11T13:46:32;13.50;99.90
11991;DHT22;6055;52.522;13.446;2022-11-11T13:49:00;13.50;99.90
11991;DHT22;6055;52.522;13.446;2022-11-11T13:51:36;13.40;99.90
11991;DHT22;6055;52.522;13.446;2022-11-11T13:54:04;13.40;99.90
11991;DHT22;6055;52.522;13.446;2022-11-11T13:56:39;13.40;99.90
11991;DHT22;6055;52.522;13.446;2022-11-11T13:59:07;13.40;99.90
11991;DHT22;6055;52.522;13.446;2022-11-11T14:01:40;13.30;99.90
11991;DHT22;6055;52.522;13.446;2022-11-11T14:04:07;13.40;99.90
11991;DHT22;6055;52.522;13.446;2022-11-11T14:08:59;13.30;99.90
11991;DHT22;6055;52.522;13.446;2022-11-11T14:13:52;13.30;99.90
11991;DHT22;6055;52.522;13.446;2022-11-11T14:19:27;13.20;99.90
11991;DHT22;6055;52.522;13.446;2022-11-11T14:21:55;13.20;99.90
11991;DHT22;6055;52.522;13.446;2022-11-11T14:27:14;13.20;99.90
11991;DHT22;6055;52.522;13.446;2022-11-11T14:29:50;13.10;99.90
11991;DHT22;6055;52.522;13.446;2022-11-11T14:35:14;13.10;99.90
11991;DHT22;6055;52.522;13.446;2022-11-11T14:37:53;13.10;99.90
11991;DHT22;6055;52.522;13.446;2022-11-11T14:40:29;13.10;99.90
11991;DHT22;6055;52.522;13.446;2022-11-11T14:42:56;13.10;99.90
11991;DHT22;6055;52.522;13.446;2022-11-11T14:47:47;13.00;99.90
11991;DHT22;6055;52.522;13.446;2022-11-11T14:53:00;12.80;99.90
11991;DHT22;6055;52.522;13.446;2022-11-11T14:55:35;12.80;99.90
11991;DHT22;6055;52.522;13.446;2022-11-11T14:58:16;12.80;99.90
11991;DHT22;6055;52.522;13.446;2022-11-11T15:03:37;12.70;99.90
11991;DHT22;6055;52.522;13.446;2022-11-11T15:06:15;12.70;99.90
11991;DHT22;6055;52.522;13.446;2022-11-11T15:08:56;12.60;99.90
11991;DHT22;6055;52.522;13.446;2022-11-11T15:11:40;12.60;99.90
11991;DHT22;6055;52.522;13.446;2022-11-11T15:14:24;12.60;99.90
11991;DHT22;6055;52.522;13.446;2022-11-11T15:17:20;12.50;99.90
11991;DHT22;6055;52.522;13.446;2022-11-11T15:31:09;12.30;99.90
11991;DHT22;6055;52.522;13.446;2022-11-11T15:34:02;12.20;99.90
11991;DHT22;6055;52.522;13.446;2022-11-11T15:36:53;12.20;99.90
11991;DHT22;6055;52.522;13.446;2022-11-11T15:39:37;12.20;99.90
11991;DHT22;6055;52.522;13.446;2022-11-11T15:42:03;12.10;99.90
11991;DHT22;6055;52.522;13.446;2022-11-11T15:44:31;12.00;99.90
11991;DHT22;6055;52.522;13.446;2022-11-11T15:46:59;11.90;99.90
11991;DHT22;6055;52.522;13.446;2022-11-11T15:49:38;11.90;99.90
11991;DHT22;6055;52.522;13.446;2022-11-11T15:54:50;11.90;99.90
11991;DHT22;6055;52.522;13.446;2022-11-11T15:57:31;11.80;99.90
11991;DHT22;6055;52.522;13.446;2022-11-11T15:59:59;11.80;99.90
11991;DHT22;6055;52.522;13.446;2022-11-11T16:02:30;11.70;99.90
11991;DHT22;6055;52.522;13.446;2022-11-11T16:05:05;11.70;99.90
11991;DHT22;6055;52.522;13.446;2022-11-11T16:07:42;11.70;99.90
11991;DHT22;6055;52.522;13.446;2022-11-11T16:10:31;11.60;99.90
11991;DHT22;6055;52.522;13.446;2022-11-11T16:18:45;11.60;99.90
11991;DHT22;6055;52.522;13.446;2022-11-11T16:21:21;11.50;99.90
11991;DHT22;6055;52.522;13.446;2022-11-11T16:23:48;11.50;99.90
11991;DHT22;6055;52.522;13.446;2022-11-11T16:26:15;11.50;99.90
11991;DHT22;6055;52.522;13.446;2022-11-11T16:28:52;11.50;99.90
11991;DHT22;6055;52.522;13.446;2022-11-11T16:33:51;11.50;99.90
11991;DHT22;6055;52.522;13.446;2022-11-11T16:36:16;11.50;99.90
11991;DHT22;6055;52.522;13.446;2022-11-11T16:38:42;11.50;99.90
11991;DHT22;6055;52.522;13.446;2022-11-11T16:41:28;11.50;99.90
11991;DHT22;6055;52.522;13.446;2022-11-11T16:43:56;11.40;99.90
11991;DHT22;6055;52.522;13.446;2022-11-11T16:49:00;11.40;99.90
11991;DHT22;6055;52.522;13.446;2022-11-11T16:51:41;11.40;99.90
11991;DHT22;6055;52.522;13.446;2022-11-11T16:54:13;11.30;99.90
11991;DHT22;6055;52.522;13.446;2022-11-11T16:56:45;11.30;99.90
11991;DHT22;6055;52.522;13.446;2022-11-11T17:02:00;11.30;99.90
11991;DHT22;6055;52.522;13.446;2022-11-11T17:04:25;11.30;99.90
11991;DHT22;6055;52.522;13.446;2022-11-11T17:07:30;11.30;99.90
11991;DHT22;6055;52.522;13.446;2022-11-11T17:10:14;11.20;99.90
11991;DHT22;6055;52.522;13.446;2022-11-11T17:12:40;11.20;99.90
11991;DHT22;6055;52.522;13.446;2022-11-11T17:15:08;11.20;99.90
11991;DHT22;6055;52.522;13.446;2022-11-11T17:17:34;11.20;99.90
11991;DHT22;6055;52.522;13.446;2022-11-11T17:20:08;11.10;99.90
11991;DHT22;6055;52.522;13.446;2022-11-11T17:22:34;11.10;99.90
11991;DHT22;6055;52.522;13.446;2022-11-11T17:25:00;11.10;99.90
11991;DHT22;6055;52.522;13.446;2022-11-11T17:27:28;11.10;99.90
11991;DHT22;6055;52.522;13.446;2022-11-11T17:29:55;11.00;99.90
11991;DHT22;6055;52.522;13.446;2022-11-11T17:32:20;11.00;99.90
11991;DHT22;6055;52.522;13.446;2022-11-11T17:34:46;11.00;99.90
11991;DHT22;6055;52.522;13.446;2022-11-11T17:37:11;11.00;99.90
11991;DHT22;6055;52.522;13.446;2022-11-11T17:39:37;11.00;99.90
11991;DHT22;6055;52.522;13.446;2022-11-11T17:42:08;11.00;99.90
11991;DHT22;6055;52.522;13.446;2022-11-11T17:44:33;11.00;99.90
11991;DHT22;6055;52.522;13.446;2022-11-11T17:46:58;11.00;99.90
11991;DHT22;6055;52.522;13.446;2022-11-11T17:49:24;11.00;99.90
11991;DHT22;6055;52.522;13.446;2022-11-11T17:51:49;10.90;99.90
11991;DHT22;6055;52.522;13.446;2022-11-11T17:54:15;10.90;99.90